Aérodrome :
LOGIN :

S'inscrire | Disclaimer

   EN    FR    IT 

 










Légende :    VFR   VFR Marginal   IFR   IFR Intensif   IFR Très Intensif
Visi : 
Plafond : 
>= 8 km
>= 3000ft
5 à 8 km
1000 à 3000 ft
1500m à 5 km
500 à 1000 ft
800 à 1500m
200 à 500 ft
< 800m
< 200 ft
Symboles :   Orages  Brouillard  Fortes neiges  Fortes précipitations  Vent > 20 kt
SIGMETs :   Divers  Orages  Givrage  Turbulence  Onde Orograph.  Cendres Volcan.






- Altitude de l'aérodrome : 1300 ft
- Code IATA : LIG


LFBL - Limoges

DERNIER METAR :
  • 140530Z AUTO 22007KT 5000 -DZ BR BKN003 BKN007 OVC012 16/16 Q1018 NOSIG

METARs EXPIRÉS :
  • 140500Z AUTO 23007KT 200V270 4100 -RADZ BR BKN003 OVC008 16/16 Q1018 NOSIG
  • 140430Z AUTO 22007KT 200V260 5000 -RADZ BR OVC003 16/16 Q1018 NOSIG
  • 140400Z AUTO 23005KT 200V260 7000 BKN004 OVC008 16/16 Q1018 TEMPO 3000 -DZ
  • 140330Z AUTO 22005KT 200V270 9999 OVC005 16/16 Q1018 TEMPO 3000 -DZ
  • 140300Z AUTO 23005KT 190V260 9999 OVC005 16/16 Q1018 TEMPO 3000 -DZ

TAF TAF LFBL
Valide du 14 à 06h jusqu'au 15 à 06h UTC


140500Z 1406/1506 22005KT 6000 OVC005
TEMPO 1406/1408 3000 -DZ OVC003
BECMG 1408/1409 SCT008 BKN016
ATIS : +33 5 55 48 40 37



MET'MAP, la Météo Aéronautique d'un coup d'oeil ! - Copyright ORBIFLY Décembre 2007 - Disclaimer

ORBIFLY MET'MAP TEAM :

Programmation & Développement : Alexandra Zaïnal
Sur une idée originale de : Baudouin d'Aumeries
Assistance à la programmation : Marc-Olivier Méhu
Soutien technique & logistique : Manuel Goepfert

Contact : metmap@orbifly.com




SOURCES & CREDITS :

   NOAA